Hovedside
METAR-TAF:

METAR-TAF

Lufthavner :

Bamako-Sénou internasjonale lufthavn

Bamako, Mali

breddegrad: 12-32N, lengdegrad: 007-57W, høyde over havet: 380 m

Gjeldene værobservasjon

Denne rapporten ble laget for 26 minutter siden, klokken 15:30 UTC
Vind 7 kt fra Øst-nordøst, skiftende mellom Nord-nordøst og Øst-sørøst
Temperatur 34°C
Luftfuktighet 19%
Trykk 1012 hPa
Sikt 10 km eller mer
ingen skyer under 1500 m og ingen bygeskyer

METAR: GABS 201530Z 07007KT 020V110 CAVOK 34/07 Q1012 NOSIG

Tid: 15:56 (15:56 UTC)

Varsel

Denne rapporten ble laget for 4 timer og 46 minutter siden, klokken 11:10 UTC
Varsel gyldig fra 20. klokken 12 UTC til 21. klokken 18 UTC
Vind 10 kt fra Nord-nordøst
Sikt 10 km eller mer
ingen skyer under 1500 m og ingen bygeskyer
Sannsynlighet 40% :
Midlertidig
fra 21. klokken 06 UTC til 21. klokken 12 UTC
Sikt: 4000 m
mye støv

TAF: GABS 201110Z 2012/2118 02010KT CAVOK PROB40 TEMPO 2106/2112 4000 DU

Værobservasjoner og værvarsel for over 4000 flyplasser (METAR- og TAF-rapporter).

Tilgjengelige stasjoner er representert av de røde og gule prikkene på kartet.

Hold musepekeren over prikken for å se navnet på stasjonen.

Klikk så for å se værobservasjoner og -varsler.

For å forandre kartet kan du klikke på den grønne knappen med svart kryss for å zoome inn, på den grønne knappen med strek for å zoome ut, eller på de grønne pilene for å se tilstøtende kart.


METAR-TAF: